Time;durP1;ratioP1;P1;durP2;ratioP2;P2;SDS_P1;SDS_P2;PMS_P1;PMS_P2;Temp;Humidity;BMP_temperature;BMP_pressure;BME280_temperature;BME280_humidity;BME280_pressure;Samples;Min_cycle;Max_cycle;Signal;HPM_P1;HPM_P2
2021/03/14 00:00:47;;;;;;;0.87;0.70;;;;;;;4.52;89.58;94530.03;6871691;28;20220;-68
2021/03/14 00:04:07;;;;;;;0.50;0.50;;;;;;;4.42;87.97;94534.31;6876712;28;20752;-66
2021/03/14 00:07:27;;;;;;;0.90;0.60;;;;;;;4.31;87.50;94541.22;6888208;28;20295;-68
2021/03/14 00:10:59;;;;;;;1.07;0.60;;;;;;;4.35;88.91;94562.00;6884952;28;20213;-67
2021/03/14 00:14:20;;;;;;;0.63;0.63;;;;;;;4.37;88.51;94544.34;6864268;28;20220;-68
2021/03/14 00:17:40;;;;;;;0.73;0.60;;;;;;;4.16;86.78;94542.38;6895187;28;20220;-69
2021/03/14 00:21:02;;;;;;;1.07;0.70;;;;;;;4.05;86.23;94549.38;6889030;28;20342;-68
2021/03/14 00:24:22;;;;;;;1.10;0.80;;;;;;;4.11;86.58;94556.81;6890072;28;20300;-67
2021/03/14 00:27:46;;;;;;;0.70;0.70;;;;;;;4.01;85.92;94559.28;6895475;28;20223;-72
2021/03/14 00:31:06;;;;;;;1.63;0.90;;;;;;;4.01;86.10;94567.16;6917011;28;20225;-73
2021/03/14 00:34:27;;;;;;;1.23;0.67;;;;;;;4.11;86.98;94546.28;6918793;28;20228;-74
2021/03/14 00:37:48;;;;;;;1.30;0.90;;;;;;;4.09;86.21;94551.66;6920115;28;20216;-72
2021/03/14 00:41:10;;;;;;;1.83;0.80;;;;;;;4.15;88.27;94537.22;6887131;28;20263;-74
2021/03/14 00:44:31;;;;;;;1.93;1.20;;;;;;;4.09;89.03;94529.78;6913351;28;20227;-72
2021/03/14 00:47:51;;;;;;;2.37;0.93;;;;;;;4.03;87.59;94531.09;6921362;28;20216;-72
2021/03/14 00:51:11;;;;;;;3.43;0.90;;;;;;;4.10;88.03;94526.22;6910859;28;20224;-72
2021/03/14 00:54:35;;;;;;;2.80;1.07;;;;;;;4.11;87.28;94512.13;6916103;28;20707;-71
2021/03/14 00:57:55;;;;;;;4.60;1.03;;;;;;;4.19;87.46;94529.00;6916857;28;20217;-71
2021/03/14 01:01:16;;;;;;;4.57;1.30;;;;;;;4.28;86.90;94530.91;6900890;28;20234;-71
2021/03/14 01:04:36;;;;;;;2.27;1.27;;;;;;;4.29;85.95;94529.13;6915095;28;20212;-73
2021/03/14 01:07:56;;;;;;;1.70;1.10;;;;;;;4.37;86.79;94524.16;6917874;28;20228;-71
2021/03/14 01:11:17;;;;;;;2.07;1.10;;;;;;;4.50;87.33;94532.75;6911745;28;20241;-72
2021/03/14 01:14:37;;;;;;;1.90;1.00;;;;;;;4.51;86.07;94539.69;6918964;28;20216;-71
2021/03/14 01:17:58;;;;;;;0.97;0.87;;;;;;;4.53;85.00;94529.88;6912759;28;20605;-71
2021/03/14 01:21:18;;;;;;;2.03;1.10;;;;;;;4.49;83.36;94520.56;6919257;28;20223;-72
2021/03/14 01:24:39;;;;;;;2.80;1.10;;;;;;;4.46;83.24;94535.75;6909995;28;20262;-72
2021/03/14 01:27:59;;;;;;;4.53;0.90;;;;;;;4.52;83.41;94530.88;6914977;28;20238;-72
2021/03/14 01:31:22;;;;;;;2.40;1.00;;;;;;;4.52;82.68;94538.75;6899602;28;20294;-71
2021/03/14 01:34:48;;;;;;;0.80;0.80;;;;;;;4.47;81.35;94553.19;6914929;28;20208;-71
2021/03/14 01:38:11;;;;;;;1.73;1.00;;;;;;;4.45;80.72;94560.34;6908015;28;20242;-71
2021/03/14 01:41:34;;;;;;;1.33;0.67;;;;;;;4.50;80.36;94550.31;6907484;28;20358;-72
2021/03/14 01:44:57;;;;;;;0.70;0.70;;;;;;;4.36;79.67;94548.75;6916526;28;20211;-72
2021/03/14 01:48:23;;;;;;;0.70;0.60;;;;;;;4.43;81.74;94562.25;6903915;28;20212;-72
2021/03/14 01:51:43;;;;;;;1.03;0.70;;;;;;;4.35;78.24;94556.75;6888000;28;20220;-71
2021/03/14 01:55:06;;;;;;;0.93;0.80;;;;;;;4.23;79.34;94569.00;6907546;28;20247;-72
2021/03/14 01:58:26;;;;;;;1.03;0.90;;;;;;;4.23;77.48;94561.97;6915191;28;20387;-73
2021/03/14 02:01:49;;;;;;;1.03;0.80;;;;;;;4.29;78.28;94576.44;6901555;28;20771;-71
2021/03/14 02:05:12;;;;;;;0.87;0.73;;;;;;;4.34;77.48;94576.94;6907420;28;20239;-72
2021/03/14 02:08:32;;;;;;;1.73;0.80;;;;;;;4.31;76.22;94587.69;6917727;28;20246;-72
2021/03/14 02:11:54;;;;;;;1.13;0.80;;;;;;;4.28;75.71;94598.41;6907306;28;20216;-71
2021/03/14 02:15:18;;;;;;;1.97;1.00;;;;;;;4.38;75.65;94607.28;6921209;28;20850;-71
2021/03/14 02:18:41;;;;;;;2.40;1.37;;;;;;;4.39;75.21;94637.88;6912322;28;20695;-70
2021/03/14 02:22:02;;;;;;;1.30;0.90;;;;;;;4.31;74.66;94629.72;6918347;28;20315;-72
2021/03/14 02:25:27;;;;;;;2.73;1.00;;;;;;;4.43;75.71;94643.72;6900102;28;20286;-71
2021/03/14 02:28:52;;;;;;;1.50;0.90;;;;;;;4.53;76.90;94649.97;6910396;28;20261;-71
2021/03/14 02:32:15;;;;;;;1.23;0.80;;;;;;;4.56;75.05;94629.56;6909758;28;20242;-72
2021/03/14 02:35:36;;;;;;;1.00;1.00;;;;;;;4.44;74.13;94642.78;6888665;28;20268;-71
2021/03/14 02:38:57;;;;;;;1.07;0.80;;;;;;;4.48;75.42;94652.94;6911804;28;20208;-72
2021/03/14 02:42:20;;;;;;;1.67;0.80;;;;;;;4.49;76.52;94673.03;6915684;28;20345;-71
2021/03/14 02:45:41;;;;;;;3.90;1.10;;;;;;;4.40;75.86;94679.00;6889508;28;20240;-69
2021/03/14 02:49:02;;;;;;;1.07;0.80;;;;;;;4.43;75.96;94678.75;6902574;28;20220;-71
2021/03/14 02:52:23;;;;;;;0.70;0.70;;;;;;;4.40;75.74;94692.13;6906166;28;20227;-71
2021/03/14 02:55:43;;;;;;;1.77;0.97;;;;;;;4.29;76.33;94694.69;6912337;28;20593;-71
2021/03/14 02:59:05;;;;;;;3.40;1.10;;;;;;;4.28;75.97;94706.16;6901126;28;20689;-71
2021/03/14 03:02:28;;;;;;;1.47;1.00;;;;;;;4.26;74.62;94702.81;6902303;28;20245;-71
2021/03/14 03:05:49;;;;;;;1.17;0.97;;;;;;;4.36;74.68;94721.38;6889810;28;20228;-72
2021/03/14 03:09:15;;;;;;;1.87;0.90;;;;;;;4.42;74.08;94713.91;6905908;28;20235;-72
2021/03/14 03:12:35;;;;;;;5.73;0.90;;;;;;;4.42;73.29;94718.31;6915728;28;20230;-75
2021/03/14 03:15:57;;;;;;;2.97;1.10;;;;;;;4.45;73.71;94724.16;6909847;28;20219;-72
2021/03/14 03:19:18;;;;;;;3.80;1.10;;;;;;;4.41;73.63;94701.69;6910031;28;20251;-72
2021/03/14 03:22:42;;;;;;;1.50;1.20;;;;;;;4.35;72.25;94732.84;6905135;28;20219;-72
2021/03/14 03:26:03;;;;;;;4.13;1.10;;;;;;;4.43;72.25;94736.56;6908014;28;20242;-71
2021/03/14 03:29:24;;;;;;;2.70;1.10;;;;;;;4.47;71.69;94737.22;6906547;28;20220;-73
2021/03/14 03:32:45;;;;;;;2.57;1.27;;;;;;;4.39;71.17;94745.66;6917417;28;20947;-72
2021/03/14 03:36:06;;;;;;;1.33;0.90;;;;;;;4.32;71.51;94749.69;6912056;28;20951;-74
2021/03/14 03:39:26;;;;;;;4.13;1.03;;;;;;;4.26;71.31;94755.38;6889058;28;20235;-72
2021/03/14 03:43:02;;;;;;;1.90;1.10;;;;;;;4.28;71.77;94762.19;6914830;28;20215;-72
2021/03/14 03:46:25;;;;;;;3.47;0.90;;;;;;;4.40;72.52;94770.16;6906280;28;20990;-71
2021/03/14 03:49:51;;;;;;;2.13;0.87;;;;;;;4.37;70.40;94789.63;6914576;28;20231;-71
2021/03/14 03:53:12;;;;;;;2.17;1.30;;;;;;;4.41;70.47;94791.06;6894349;28;20227;-71
2021/03/14 03:56:33;;;;;;;3.73;1.13;;;;;;;4.40;70.13;94793.81;6912768;28;20223;-72
2021/03/14 03:59:54;;;;;;;3.40;1.53;;;;;;;4.40;70.48;94794.66;6898579;28;20222;-75
2021/03/14 04:03:15;;;;;;;4.40;1.47;;;;;;;4.36;70.14;94797.59;6906823;28;21011;-72
2021/03/14 04:06:36;;;;;;;3.60;1.30;;;;;;;4.22;68.86;94801.22;6905982;28;20223;-73
2021/03/14 04:09:56;;;;;;;3.70;1.63;;;;;;;4.12;68.60;94808.09;6884174;28;20239;-71
2021/03/14 04:13:17;;;;;;;2.70;1.33;;;;;;;4.04;68.47;94815.66;6912765;28;20271;-72
2021/03/14 04:16:38;;;;;;;3.33;1.47;;;;;;;4.00;68.60;94828.16;6919230;28;20220;-71
2021/03/14 04:20:00;;;;;;;4.57;1.73;;;;;;;4.10;69.22;94828.38;6902106;28;20348;-71
2021/03/14 04:23:24;;;;;;;3.17;1.20;;;;;;;4.26;69.06;94837.69;6891996;28;20908;-74
2021/03/14 04:26:46;;;;;;;2.83;1.50;;;;;;;4.35;68.30;94843.22;6913143;28;20913;-71
2021/03/14 04:30:07;;;;;;;3.90;1.30;;;;;;;4.37;67.20;94851.88;6916236;28;20235;-71
2021/03/14 04:33:28;;;;;;;2.33;1.20;;;;;;;4.36;67.21;94866.78;6906507;28;20649;-71
2021/03/14 04:36:54;;;;;;;5.00;1.80;;;;;;;4.41;66.79;94869.09;6909105;28;20224;-72
2021/03/14 04:40:15;;;;;;;4.10;1.30;;;;;;;4.45;66.82;94881.91;6884889;28;20225;-72
2021/03/14 04:43:35;;;;;;;3.60;1.20;;;;;;;4.56;67.06;94882.00;6906196;28;20590;-73
2021/03/14 04:46:59;;;;;;;4.07;1.30;;;;;;;4.64;66.84;94882.28;6889712;28;20278;-75
2021/03/14 04:50:22;;;;;;;3.67;1.30;;;;;;;4.74;65.94;94887.72;6911623;28;20226;-74
2021/03/14 04:53:42;;;;;;;3.50;1.20;;;;;;;4.78;66.11;94893.63;6913809;28;20219;-74
2021/03/14 04:57:03;;;;;;;2.13;1.00;;;;;;;4.83;65.48;94889.69;6900909;28;20303;-75
2021/03/14 05:00:27;;;;;;;3.43;1.00;;;;;;;4.90;64.91;94895.34;6915794;28;20220;-75
2021/03/14 05:03:55;;;;;;;2.30;1.10;;;;;;;5.00;64.87;94904.25;6883452;28;20244;-74
2021/03/14 05:07:16;;;;;;;3.80;1.37;;;;;;;5.09;64.47;94912.31;6907122;28;20239;-72
2021/03/14 05:10:37;;;;;;;3.13;1.10;;;;;;;5.15;63.86;94893.44;6905411;28;20243;-74
2021/03/14 05:13:58;;;;;;;5.27;1.40;;;;;;;5.16;63.61;94894.28;6906148;28;20275;-74
2021/03/14 05:17:18;;;;;;;2.30;1.20;;;;;;;5.18;63.97;94911.63;6894946;28;20672;-74
2021/03/14 05:20:40;;;;;;;4.50;1.30;;;;;;;5.24;63.61;94909.50;6903869;28;20232;-74
2021/03/14 05:24:01;;;;;;;4.03;1.23;;;;;;;5.25;63.66;94921.72;6909616;28;20685;-74
2021/03/14 05:27:21;;;;;;;3.67;1.30;;;;;;;5.30;63.18;94906.44;6898757;28;20287;-74
2021/03/14 05:30:43;;;;;;;3.33;1.87;;;;;;;5.31;63.05;94911.59;6897333;28;20266;-71
2021/03/14 05:34:07;;;;;;;3.43;1.30;;;;;;;5.32;62.93;94910.66;6909451;28;20223;-71
2021/03/14 05:37:30;;;;;;;2.83;1.10;;;;;;;5.23;62.57;94903.41;6891312;28;20722;-72
2021/03/14 05:40:51;;;;;;;6.77;1.60;;;;;;;5.19;62.84;94901.97;6887059;28;20315;-71
2021/03/14 05:44:14;;;;;;;2.20;1.10;;;;;;;5.06;61.77;94917.81;6909922;28;20220;-71
2021/03/14 05:47:35;;;;;;;4.87;1.50;;;;;;;4.97;62.51;94923.75;6901444;28;20238;-72
2021/03/14 05:50:56;;;;;;;4.00;1.30;;;;;;;5.01;63.17;94929.63;6901770;28;20301;-74
2021/03/14 05:54:17;;;;;;;4.23;1.33;;;;;;;5.08;63.65;94936.13;6909668;28;20213;-73
2021/03/14 05:57:38;;;;;;;2.87;1.30;;;;;;;5.06;63.00;94949.41;6897177;28;20215;-71
2021/03/14 06:01:02;;;;;;;4.20;1.37;;;;;;;5.12;63.16;94950.75;6903166;28;20221;-72
2021/03/14 06:04:23;;;;;;;1.90;1.00;;;;;;;5.06;62.84;94959.09;6889458;28;20213;-70
2021/03/14 06:07:43;;;;;;;2.43;1.13;;;;;;;5.03;66.22;94959.31;6901695;28;20231;-71
2021/03/14 06:11:07;;;;;;;3.87;1.30;;;;;;;4.99;69.85;94969.19;6906497;28;20314;-73
2021/03/14 06:14:27;;;;;;;1.93;1.30;;;;;;;5.04;72.02;94964.44;6900619;28;20224;-72
2021/03/14 06:17:48;;;;;;;2.60;1.20;;;;;;;5.07;71.48;94985.28;6910169;28;20220;-72
2021/03/14 06:21:40;;;;;;;2.47;1.40;;;;;;;4.94;67.64;94981.84;6897549;28;20255;-72
2021/03/14 06:25:01;;;;;;;4.03;1.30;;;;;;;4.89;67.19;94986.59;6892501;28;20213;-71
2021/03/14 06:28:38;;;;;;;2.70;1.20;;;;;;;4.70;66.31;95004.63;6896270;28;20211;-72
2021/03/14 06:32:02;;;;;;;6.20;1.20;;;;;;;4.60;66.60;95014.94;6899958;28;20253;-71
2021/03/14 06:35:23;;;;;;;2.70;1.27;;;;;;;4.72;67.06;95015.88;6908214;28;20230;-71
2021/03/14 06:38:43;;;;;;;2.93;1.00;;;;;;;4.77;66.19;95033.97;6908644;28;21288;-71
2021/03/14 06:42:06;;;;;;;3.17;1.20;;;;;;;4.71;65.69;95033.44;6910516;28;20220;-72
2021/03/14 06:45:38;;;;;;;1.43;1.10;;;;;;;4.74;65.18;95035.00;6902332;28;20228;-72
2021/03/14 06:49:18;;;;;;;4.03;1.27;;;;;;;4.89;65.44;95031.31;6896402;28;20249;-72
2021/03/14 06:52:39;;;;;;;3.37;1.77;;;;;;;5.01;65.16;95037.50;6898552;28;20223;-72
2021/03/14 06:56:10;;;;;;;2.83;1.27;;;;;;;5.10;65.15;95034.22;6912593;28;20211;-71
2021/03/14 06:59:44;;;;;;;1.97;1.20;;;;;;;5.16;64.43;95034.63;6910272;28;20941;-72
2021/03/14 07:03:24;;;;;;;5.37;1.60;;;;;;;5.25;64.35;95043.66;6889589;28;20217;-72
2021/03/14 07:06:45;;;;;;;3.73;1.40;;;;;;;5.31;64.31;95051.13;6903780;28;20271;-72
2021/03/14 07:10:18;;;;;;;2.70;1.20;;;;;;;5.41;64.27;95067.13;6893115;28;20212;-71
2021/03/14 07:13:39;;;;;;;4.20;1.73;;;;;;;5.36;62.75;95058.69;6900318;28;20218;-72
2021/03/14 07:17:02;;;;;;;6.43;1.57;;;;;;;5.41;62.94;95061.84;6905169;28;20208;-71
2021/03/14 07:20:27;;;;;;;2.83;1.30;;;;;;;5.46;62.77;95055.31;6903482;28;20224;-72
2021/03/14 07:23:47;;;;;;;10.20;5.90;;;;;;;5.54;62.74;95058.22;6935066;28;20307;-75
2021/03/14 07:27:12;;;;;;;3.80;1.33;;;;;;;5.87;62.09;95062.88;6911412;28;20223;-74
2021/03/14 07:30:33;;;;;;;2.50;1.00;;;;;;;6.43;62.15;95061.28;6910168;28;20220;-74
2021/03/14 07:33:54;;;;;;;2.63;1.10;;;;;;;6.72;60.60;95047.66;6890695;28;20220;-73
2021/03/14 07:37:18;;;;;;;1.50;1.40;;;;;;;7.88;60.89;95041.91;6895380;28;20216;-74
2021/03/14 07:40:39;;;;;;;1.47;1.13;;;;;;;9.63;58.92;95041.03;6891642;28;20207;-75
2021/03/14 07:44:02;;;;;;;1.63;1.30;;;;;;;11.30;53.61;95039.75;6907582;28;20209;-75
2021/03/14 07:47:24;;;;;;;3.00;1.20;;;;;;;11.50;49.00;95046.66;6883781;28;20345;-74
2021/03/14 07:50:45;;;;;;;2.90;1.50;;;;;;;11.15;48.67;95050.00;6910651;28;20218;-72
2021/03/14 07:54:08;;;;;;;2.30;1.20;;;;;;;10.85;48.37;95058.19;6911111;28;20216;-72
2021/03/14 07:57:29;;;;;;;2.33;0.80;;;;;;;10.39;49.08;95071.34;6905727;28;20229;-73
2021/03/14 08:00:52;;;;;;;2.50;1.10;;;;;;;9.97;49.95;95074.19;6902254;28;20307;-72
2021/03/14 08:04:32;;;;;;;2.47;1.00;;;;;;;9.47;50.39;95084.81;6880479;28;20219;-72
2021/03/14 08:07:55;;;;;;;5.27;1.20;;;;;;;9.05;50.71;95086.69;6907315;28;20234;-75
2021/03/14 08:11:28;;;;;;;1.97;1.27;;;;;;;8.58;50.85;95084.59;6898482;28;20249;-74
2021/03/14 08:14:51;;;;;;;1.73;1.07;;;;;;;8.25;51.95;95082.88;6885680;28;20445;-71
2021/03/14 08:18:33;;;;;;;2.87;1.00;;;;;;;7.89;52.81;95088.53;6892807;28;20215;-75
2021/03/14 08:21:54;;;;;;;3.53;1.13;;;;;;;7.64;53.55;95098.44;6896182;28;21027;-74
2021/03/14 08:25:23;;;;;;;2.23;1.20;;;;;;;7.42;54.26;95095.81;6893313;28;20209;-75
2021/03/14 08:28:56;;;;;;;2.33;1.03;;;;;;;7.10;54.69;95103.59;6894972;28;20604;-77
2021/03/14 08:32:25;;;;;;;1.90;1.00;;;;;;;6.86;55.02;95110.78;6891071;28;21012;-76
2021/03/14 08:35:50;;;;;;;3.40;1.13;;;;;;;6.79;55.62;95110.41;6893980;28;20210;-75
2021/03/14 08:39:25;;;;;;;3.80;1.50;;;;;;;6.72;56.06;95111.00;6893270;28;20293;-75
2021/03/14 08:42:56;;;;;;;2.87;1.37;;;;;;;6.58;55.89;95119.97;6893013;28;20708;-75
2021/03/14 08:46:18;;;;;;;1.70;1.07;;;;;;;6.45;56.60;95113.91;6892354;28;20224;-74
2021/03/14 08:49:57;;;;;;;4.50;1.30;;;;;;;6.44;56.83;95123.59;6894709;28;20306;-74
2021/03/14 08:53:18;;;;;;;3.17;1.10;;;;;;;6.52;57.61;95130.13;6885558;28;20251;-74
2021/03/14 08:56:38;;;;;;;2.30;1.10;;;;;;;6.53;57.14;95131.81;6895391;28;20218;-74
2021/03/14 09:00:02;;;;;;;3.33;1.43;;;;;;;6.65;57.38;95131.72;6880882;28;20644;-73
2021/03/14 09:03:23;;;;;;;3.60;1.47;;;;;;;6.55;57.35;95150.97;6888720;28;20221;-73
2021/03/14 09:06:43;;;;;;;3.63;1.67;;;;;;;6.54;57.51;95151.97;6895793;28;20228;-73
2021/03/14 09:10:14;;;;;;;3.97;1.90;;;;;;;6.71;57.88;95151.53;6896414;28;20294;-74
2021/03/14 09:13:34;;;;;;;3.73;3.10;;;;;;;7.01;58.18;95159.75;6893485;28;20772;-75
2021/03/14 09:17:12;;;;;;;3.00;1.40;;;;;;;7.09;57.07;95156.56;6884827;28;20839;-74
2021/03/14 09:20:37;;;;;;;2.17;1.00;;;;;;;7.31;57.04;95151.28;6891127;28;20260;-76
2021/03/14 09:23:57;;;;;;;4.73;1.50;;;;;;;7.66;57.26;95143.22;6900613;28;20285;-77
2021/03/14 09:27:34;;;;;;;3.23;1.30;;;;;;;7.98;56.09;95132.75;6898844;28;20225;-75
2021/03/14 09:30:54;;;;;;;3.50;1.10;;;;;;;8.37;55.08;95118.94;6894488;28;20224;-74
2021/03/14 09:34:18;;;;;;;3.10;1.20;;;;;;;8.51;54.14;95117.81;6895566;28;20248;-74
2021/03/14 09:37:40;;;;;;;3.60;1.90;;;;;;;8.45;54.57;95113.84;6887168;28;20219;-75
2021/03/14 09:41:01;;;;;;;2.43;1.10;;;;;;;8.37;53.75;95103.06;6897213;28;20246;-74
2021/03/14 09:44:21;;;;;;;1.67;1.10;;;;;;;8.16;53.90;95110.94;6887089;28;20225;-75
2021/03/14 09:48:22;;;;;;;4.20;1.47;;;;;;;8.38;54.55;95117.16;6890243;28;20777;-75
2021/03/14 09:51:43;;;;;;;3.83;1.80;;;;;;;8.34;52.87;95107.78;6901345;28;20231;-75
2021/03/14 09:55:06;;;;;;;4.20;2.20;;;;;;;8.15;53.28;95106.59;6912548;28;20232;-75
2021/03/14 09:58:27;;;;;;;1.43;1.10;;;;;;;8.26;54.04;95113.66;6900743;28;20228;-76
2021/03/14 10:01:51;;;;;;;2.60;1.20;;;;;;;8.13;52.83;95119.13;6901529;28;20264;-75
2021/03/14 10:05:12;;;;;;;5.73;1.50;;;;;;;7.97;53.19;95129.25;6888599;28;20229;-74
2021/03/14 10:08:35;;;;;;;1.67;0.90;;;;;;;7.86;52.86;95117.84;6901487;28;20328;-76
2021/03/14 10:11:58;;;;;;;2.57;1.20;;;;;;;7.63;52.78;95131.13;6900289;28;20232;-75
2021/03/14 10:15:23;;;;;;;1.77;1.13;;;;;;;7.39;53.12;95127.78;6893739;28;20404;-74
2021/03/14 10:18:46;;;;;;;4.00;1.40;;;;;;;7.09;53.77;95130.97;6884691;28;20285;-74
2021/03/14 10:22:07;;;;;;;3.70;1.50;;;;;;;7.02;54.19;95137.69;6893883;28;20225;-74
2021/03/14 10:25:37;;;;;;;2.10;1.10;;;;;;;7.01;54.70;95146.56;6903815;28;20279;-76
2021/03/14 10:28:58;;;;;;;3.47;1.10;;;;;;;7.04;54.89;95140.22;6899801;28;20275;-74
2021/03/14 10:32:27;;;;;;;3.23;1.10;;;;;;;6.84;54.32;95137.28;6904089;28;20280;-74
2021/03/14 10:35:59;;;;;;;2.43;1.23;;;;;;;6.71;55.47;95139.19;6911789;28;20945;-75
2021/03/14 10:39:24;;;;;;;6.57;1.90;;;;;;;6.69;56.78;95142.91;6908321;28;20225;-74
2021/03/14 10:42:50;;;;;;;5.43;1.40;;;;;;;6.91;57.32;95148.22;6894586;28;20215;-73
2021/03/14 10:46:11;;;;;;;2.20;1.07;;;;;;;7.06;57.34;95133.00;6889752;28;20228;-75
2021/03/14 10:49:33;;;;;;;5.10;1.43;;;;;;;7.07;56.98;95135.53;6900150;28;20684;-74
2021/03/14 10:53:19;;;;;;;4.30;1.60;;;;;;;7.15;57.10;95140.22;6903073;28;20223;-75
2021/03/14 10:56:48;;;;;;;5.07;1.60;;;;;;;7.14;57.21;95143.84;6900227;28;20263;-74
2021/03/14 11:00:09;;;;;;;5.27;1.40;;;;;;;7.12;57.42;95148.38;6903833;28;20644;-75
2021/03/14 11:03:32;;;;;;;6.13;1.67;;;;;;;7.01;58.61;95151.84;6897006;28;20276;-74
2021/03/14 11:06:54;;;;;;;5.60;1.40;;;;;;;6.78;59.14;95147.47;6902719;28;21066;-75
2021/03/14 11:10:16;;;;;;;2.93;1.37;;;;;;;6.68;59.72;95144.69;6887154;28;20340;-76
2021/03/14 11:13:36;;;;;;;2.57;1.40;;;;;;;6.53;59.72;95147.63;6908485;28;20220;-75
2021/03/14 11:17:06;;;;;;;5.23;1.83;;;;;;;6.46;60.84;95149.88;6907273;28;20606;-75
2021/03/14 11:20:29;;;;;;;4.60;1.90;;;;;;;6.40;62.09;95145.91;6902821;28;20720;-75
2021/03/14 11:23:49;;;;;;;5.13;1.60;;;;;;;6.58;62.48;95151.63;6898670;28;20226;-75
2021/03/14 11:27:12;;;;;;;3.70;1.27;;;;;;;6.59;61.69;95152.47;6906320;28;20224;-75
2021/03/14 11:30:32;;;;;;;4.67;1.40;;;;;;;6.45;62.14;95148.19;6908740;28;20741;-74
2021/03/14 11:33:55;;;;;;;3.63;1.77;;;;;;;6.45;62.87;95138.47;6905710;28;20223;-74
2021/03/14 11:37:16;;;;;;;4.07;1.63;;;;;;;6.59;63.12;95155.91;6900057;28;20307;-74
2021/03/14 11:40:37;;;;;;;6.93;1.47;;;;;;;6.71;63.07;95144.44;6903812;28;20248;-75
2021/03/14 11:44:00;;;;;;;3.83;1.87;;;;;;;6.68;62.85;95138.56;6913187;28;20228;-76
2021/03/14 11:47:21;;;;;;;3.27;1.50;;;;;;;6.69;63.11;95145.53;6903013;28;20224;-74
2021/03/14 11:50:44;;;;;;;4.17;2.03;;;;;;;6.78;63.43;95147.47;6913471;28;20227;-75
2021/03/14 11:54:04;;;;;;;5.60;1.70;;;;;;;6.93;63.38;95145.47;6912718;28;20599;-74
2021/03/14 11:57:25;;;;;;;4.70;2.00;;;;;;;7.03;63.52;95141.19;6883821;28;20692;-75
2021/03/14 12:00:48;;;;;;;5.53;1.90;;;;;;;7.08;62.92;95131.94;6893008;28;20213;-75
2021/03/14 12:04:08;;;;;;;3.13;1.73;;;;;;;7.13;62.91;95135.06;6896518;28;20244;-73
2021/03/14 12:07:29;;;;;;;3.80;1.70;;;;;;;7.21;63.38;95147.66;6907354;28;20225;-74
2021/03/14 12:10:52;;;;;;;5.13;1.63;;;;;;;7.36;63.23;95138.56;6905728;28;20215;-75
2021/03/14 12:14:12;;;;;;;5.33;1.63;;;;;;;7.62;63.34;95133.88;6898968;28;20217;-74
2021/03/14 12:17:33;;;;;;;3.47;1.67;;;;;;;8.18;62.95;95119.59;6891162;28;20328;-75
2021/03/14 12:20:56;;;;;;;3.17;1.10;;;;;;;8.78;62.14;95110.22;6897306;28;20209;-74
2021/03/14 12:24:18;;;;;;;1.90;1.03;;;;;;;9.32;62.02;95114.44;6912398;28;20209;-74
2021/03/14 12:27:39;;;;;;;2.80;1.30;;;;;;;9.82;60.40;95100.28;6907561;28;20209;-74
2021/03/14 12:31:00;;;;;;;3.00;1.30;;;;;;;9.76;58.13;95087.53;6905022;28;20310;-73
2021/03/14 12:34:25;;;;;;;4.27;1.57;;;;;;;9.41;57.50;95098.59;6905992;28;20206;-73
2021/03/14 12:37:45;;;;;;;1.80;0.90;;;;;;;8.98;58.34;95097.94;6910842;28;20592;-73
2021/03/14 12:41:05;;;;;;;2.37;1.30;;;;;;;8.63;58.59;95097.44;6898442;28;20723;-74
2021/03/14 12:44:26;;;;;;;1.33;0.83;;;;;;;8.45;59.48;95097.16;6915025;28;20237;-74
2021/03/14 12:47:47;;;;;;;1.20;1.10;;;;;;;8.38;59.64;95099.47;6904854;28;20247;-74
2021/03/14 12:51:07;;;;;;;2.63;1.13;;;;;;;8.15;59.46;95103.94;6910260;28;20753;-73
2021/03/14 12:54:27;;;;;;;1.60;1.10;;;;;;;8.06;60.22;95110.00;6907927;28;20625;-75
2021/03/14 12:57:48;;;;;;;4.37;1.93;;;;;;;7.85;59.92;95117.00;6904847;28;20208;-73
2021/03/14 13:01:08;;;;;;;2.73;1.30;;;;;;;7.87;61.05;95108.97;6914571;28;20219;-72
2021/03/14 13:04:28;;;;;;;3.13;1.37;;;;;;;7.76;60.63;95107.19;6901023;28;20308;-72
2021/03/14 13:07:49;;;;;;;2.23;1.20;;;;;;;7.59;60.41;95110.34;6911363;28;20299;-72
2021/03/14 13:11:12;;;;;;;3.80;1.30;;;;;;;7.20;61.08;95115.13;6906827;28;20254;-72
2021/03/14 13:14:32;;;;;;;2.43;1.20;;;;;;;7.13;61.87;95111.31;6898030;28;20216;-72
2021/03/14 13:17:53;;;;;;;3.13;1.40;;;;;;;6.98;62.62;95101.09;6900231;28;20231;-72
2021/03/14 13:21:13;;;;;;;5.00;1.67;;;;;;;6.88;62.73;95114.16;6902198;28;20304;-72
2021/03/14 13:24:33;;;;;;;2.93;1.20;;;;;;;6.87;63.87;95117.75;6918462;28;20322;-72
2021/03/14 13:27:54;;;;;;;4.97;1.60;;;;;;;6.82;63.73;95111.97;6910960;28;20227;-72
2021/03/14 13:31:18;;;;;;;4.23;1.50;;;;;;;6.90;63.97;95104.28;6889981;28;20233;-72
2021/03/14 13:34:39;;;;;;;2.93;1.60;;;;;;;6.82;63.68;95112.81;6914687;28;20214;-73
2021/03/14 13:38:00;;;;;;;3.87;1.33;;;;;;;7.11;64.59;95115.84;6911219;28;20215;-72
2021/03/14 13:41:20;;;;;;;3.37;1.50;;;;;;;7.51;63.72;95112.72;6897419;28;20224;-73
2021/03/14 13:44:43;;;;;;;2.90;1.40;;;;;;;7.81;63.94;95126.16;6909253;28;20734;-73
2021/03/14 13:48:05;;;;;;;3.50;1.30;;;;;;;7.91;62.83;95121.81;6905120;28;20211;-73
2021/03/14 13:51:29;;;;;;;2.57;1.03;;;;;;;7.91;62.85;95126.25;6900797;28;21072;-73
2021/03/14 13:54:51;;;;;;;2.77;1.40;;;;;;;7.94;62.86;95128.66;6912034;28;20211;-73
2021/03/14 13:58:11;;;;;;;2.90;1.33;;;;;;;8.07;63.00;95134.66;6896210;28;20240;-73
2021/03/14 14:01:33;;;;;;;1.67;1.20;;;;;;;8.05;62.26;95136.56;6908575;28;20623;-71
2021/03/14 14:04:53;;;;;;;2.73;1.30;;;;;;;8.14;60.73;95136.69;6895514;28;20216;-74
2021/03/14 14:08:14;;;;;;;2.00;1.10;;;;;;;8.37;60.06;95133.97;6903465;28;20326;-72
2021/03/14 14:11:35;;;;;;;1.70;1.00;;;;;;;8.53;60.25;95137.91;6901810;28;20258;-74
2021/03/14 14:14:55;;;;;;;1.80;1.20;;;;;;;8.54;60.54;95147.53;6901388;28;20224;-73
2021/03/14 14:18:19;;;;;;;3.03;1.10;;;;;;;8.40;59.53;95146.97;6911373;28;20517;-73
2021/03/14 14:21:39;;;;;;;2.83;1.30;;;;;;;8.10;59.55;95148.44;6903699;28;20215;-73
2021/03/14 14:24:59;;;;;;;1.60;1.20;;;;;;;8.16;60.33;95161.19;6905158;28;20228;-72
2021/03/14 14:28:22;;;;;;;2.57;1.10;;;;;;;8.31;59.54;95164.41;6903856;28;20252;-72
2021/03/14 14:31:42;;;;;;;1.40;1.10;;;;;;;8.31;59.73;95164.41;6896897;28;20315;-73
2021/03/14 14:35:03;;;;;;;2.83;1.20;;;;;;;8.42;59.51;95168.84;6907053;28;20208;-71
2021/03/14 14:38:24;;;;;;;2.43;1.23;;;;;;;8.46;58.83;95165.81;6909844;28;20223;-72
2021/03/14 14:41:46;;;;;;;3.47;1.20;;;;;;;8.36;58.54;95174.63;6891135;28;20227;-72
2021/03/14 14:45:09;;;;;;;2.00;1.20;;;;;;;8.17;59.65;95175.25;6890959;28;20221;-74
2021/03/14 14:48:29;;;;;;;1.90;1.17;;;;;;;8.10;60.17;95176.69;6888734;28;20243;-72
2021/03/14 14:51:50;;;;;;;3.13;1.40;;;;;;;8.18;60.32;95174.28;6903098;28;20744;-72
2021/03/14 14:55:13;;;;;;;2.90;1.40;;;;;;;8.13;60.11;95172.03;6911449;28;20248;-72
2021/03/14 14:58:34;;;;;;;1.77;1.30;;;;;;;8.03;60.50;95183.47;6907048;28;20221;-72
2021/03/14 15:01:54;;;;;;;3.07;1.40;;;;;;;7.93;60.90;95178.06;6918625;28;20273;-72
2021/03/14 15:05:17;;;;;;;3.33;1.40;;;;;;;7.62;60.93;95178.78;6900248;28;20685;-72
2021/03/14 15:08:37;;;;;;;2.37;1.10;;;;;;;7.57;62.42;95186.25;6917749;28;20224;-72
2021/03/14 15:12:00;;;;;;;2.80;1.10;;;;;;;7.63;63.05;95197.19;6912523;28;20257;-73
2021/03/14 15:15:20;;;;;;;2.57;1.40;;;;;;;7.61;62.67;95198.25;6909881;28;20274;-72
2021/03/14 15:18:41;;;;;;;1.23;1.07;;;;;;;7.56;63.21;95200.41;6921516;28;20218;-72
2021/03/14 15:22:04;;;;;;;4.13;1.40;;;;;;;7.47;63.30;95204.63;6882631;28;20676;-72
2021/03/14 15:25:29;;;;;;;1.67;1.30;;;;;;;7.44;63.55;95210.16;6893994;28;20283;-72
2021/03/14 15:28:52;;;;;;;1.97;1.27;;;;;;;7.45;63.85;95205.69;6920631;28;20228;-73
2021/03/14 15:32:12;;;;;;;1.27;1.10;;;;;;;7.51;63.99;95197.28;6905787;28;20226;-72
2021/03/14 15:35:33;;;;;;;2.93;1.40;;;;;;;7.67;63.74;95193.34;6920294;28;20220;-73
2021/03/14 15:38:53;;;;;;;1.43;1.20;;;;;;;7.73;63.81;95202.59;6914367;28;20232;-73
2021/03/14 15:42:16;;;;;;;1.93;1.30;;;;;;;7.94;63.54;95208.00;6892721;28;20221;-73
2021/03/14 15:45:36;;;;;;;7.07;3.67;;;;;;;8.06;63.60;95207.84;6912446;28;20223;-73
2021/03/14 15:48:57;;;;;;;2.13;1.63;;;;;;;8.14;63.39;95210.75;6902083;28;20224;-74
2021/03/14 15:52:20;;;;;;;4.10;1.50;;;;;;;8.18;63.51;95214.81;6909528;28;20228;-73
2021/03/14 15:55:40;;;;;;;2.77;1.10;;;;;;;8.04;62.75;95208.94;6922256;28;20637;-73
2021/03/14 15:59:02;;;;;;;1.37;1.17;;;;;;;7.88;62.87;95205.81;6909826;28;20694;-73
2021/03/14 16:02:22;;;;;;;1.33;1.23;;;;;;;7.78;62.71;95212.81;6908450;28;21173;-73
2021/03/14 16:05:42;;;;;;;2.00;1.30;;;;;;;7.77;63.54;95225.16;6901866;28;20716;-73